sensor_id;sensor_type;location;lat;lon;timestamp;temperature;humidity
41630;DHT22;27322;49.488;8.480;2023-05-07T00:00:59;17.20;99.90
41630;DHT22;27322;49.488;8.480;2023-05-07T00:03:25;17.20;99.90
41630;DHT22;27322;49.488;8.480;2023-05-07T00:05:51;17.20;99.90
41630;DHT22;27322;49.488;8.480;2023-05-07T00:08:18;17.20;99.90
41630;DHT22;27322;49.488;8.480;2023-05-07T00:10:44;17.20;99.90
41630;DHT22;27322;49.488;8.480;2023-05-07T00:13:10;17.20;99.90
41630;DHT22;27322;49.488;8.480;2023-05-07T00:15:35;17.10;99.90
41630;DHT22;27322;49.488;8.480;2023-05-07T00:18:01;17.20;99.90
41630;DHT22;27322;49.488;8.480;2023-05-07T00:20:26;17.10;99.90
41630;DHT22;27322;49.488;8.480;2023-05-07T00:22:52;17.10;99.90
41630;DHT22;27322;49.488;8.480;2023-05-07T00:25:18;17.10;99.90
41630;DHT22;27322;49.488;8.480;2023-05-07T00:27:45;17.10;99.90
41630;DHT22;27322;49.488;8.480;2023-05-07T00:30:11;17.10;99.90
41630;DHT22;27322;49.488;8.480;2023-05-07T00:32:37;17.00;99.90
41630;DHT22;27322;49.488;8.480;2023-05-07T00:35:03;17.00;99.90
41630;DHT22;27322;49.488;8.480;2023-05-07T00:37:29;17.00;99.90
41630;DHT22;27322;49.488;8.480;2023-05-07T00:39:55;16.90;99.90
41630;DHT22;27322;49.488;8.480;2023-05-07T00:42:21;16.90;99.90
41630;DHT22;27322;49.488;8.480;2023-05-07T00:44:46;16.90;99.90
41630;DHT22;27322;49.488;8.480;2023-05-07T00:47:13;16.90;99.90
41630;DHT22;27322;49.488;8.480;2023-05-07T00:49:44;16.90;99.90
41630;DHT22;27322;49.488;8.480;2023-05-07T00:52:16;16.90;99.90
41630;DHT22;27322;49.488;8.480;2023-05-07T00:54:42;16.90;99.90
41630;DHT22;27322;49.488;8.480;2023-05-07T00:57:09;16.80;99.90
41630;DHT22;27322;49.488;8.480;2023-05-07T00:59:36;16.80;99.90
41630;DHT22;27322;49.488;8.480;2023-05-07T01:02:02;16.80;99.90
41630;DHT22;27322;49.488;8.480;2023-05-07T01:04:27;16.80;99.90
41630;DHT22;27322;49.488;8.480;2023-05-07T01:06:55;16.80;99.90
41630;DHT22;27322;49.488;8.480;2023-05-07T01:09:22;16.80;99.90
41630;DHT22;27322;49.488;8.480;2023-05-07T01:11:49;16.80;99.90
41630;DHT22;27322;49.488;8.480;2023-05-07T01:14:15;16.80;99.90
41630;DHT22;27322;49.488;8.480;2023-05-07T01:16:40;16.80;99.90
41630;DHT22;27322;49.488;8.480;2023-05-07T01:19:08;16.70;99.90
41630;DHT22;27322;49.488;8.480;2023-05-07T01:21:34;16.70;99.90
41630;DHT22;27322;49.488;8.480;2023-05-07T01:24:02;16.70;99.90
41630;DHT22;27322;49.488;8.480;2023-05-07T01:26:28;16.60;99.90
41630;DHT22;27322;49.488;8.480;2023-05-07T01:28:53;16.60;99.90
41630;DHT22;27322;49.488;8.480;2023-05-07T01:31:19;16.60;99.90
41630;DHT22;27322;49.488;8.480;2023-05-07T01:33:46;16.60;99.90
41630;DHT22;27322;49.488;8.480;2023-05-07T01:36:13;16.60;99.90
41630;DHT22;27322;49.488;8.480;2023-05-07T01:38:39;16.60;99.90
41630;DHT22;27322;49.488;8.480;2023-05-07T01:41:06;16.60;99.90
41630;DHT22;27322;49.488;8.480;2023-05-07T01:43:32;16.60;99.90
41630;DHT22;27322;49.488;8.480;2023-05-07T01:45:58;16.60;99.90
41630;DHT22;27322;49.488;8.480;2023-05-07T01:48:25;16.60;99.90
41630;DHT22;27322;49.488;8.480;2023-05-07T01:50:51;16.60;99.90
41630;DHT22;27322;49.488;8.480;2023-05-07T01:53:17;16.60;99.90
41630;DHT22;27322;49.488;8.480;2023-05-07T01:55:43;16.60;99.90
41630;DHT22;27322;49.488;8.480;2023-05-07T01:58:08;16.50;99.90
41630;DHT22;27322;49.488;8.480;2023-05-07T02:00:34;16.50;99.90
41630;DHT22;27322;49.488;8.480;2023-05-07T02:02:59;16.50;99.90
41630;DHT22;27322;49.488;8.480;2023-05-07T02:05:25;16.50;99.90
41630;DHT22;27322;49.488;8.480;2023-05-07T02:07:50;16.50;99.90
41630;DHT22;27322;49.488;8.480;2023-05-07T02:10:16;16.50;99.90
41630;DHT22;27322;49.488;8.480;2023-05-07T02:12:42;16.50;99.90
41630;DHT22;27322;49.488;8.480;2023-05-07T02:15:08;16.50;99.90
41630;DHT22;27322;49.488;8.480;2023-05-07T02:17:33;16.40;99.90
41630;DHT22;27322;49.488;8.480;2023-05-07T02:19:59;16.40;99.90
41630;DHT22;27322;49.488;8.480;2023-05-07T02:22:25;16.40;99.90
41630;DHT22;27322;49.488;8.480;2023-05-07T02:24:51;16.40;99.90
41630;DHT22;27322;49.488;8.480;2023-05-07T02:27:16;16.30;99.90
41630;DHT22;27322;49.488;8.480;2023-05-07T02:29:42;16.30;99.90
41630;DHT22;27322;49.488;8.480;2023-05-07T02:32:07;16.30;99.90
41630;DHT22;27322;49.488;8.480;2023-05-07T02:34:33;16.30;99.90
41630;DHT22;27322;49.488;8.480;2023-05-07T02:36:58;16.20;99.90
41630;DHT22;27322;49.488;8.480;2023-05-07T02:39:24;16.30;99.90
41630;DHT22;27322;49.488;8.480;2023-05-07T02:41:50;16.30;99.90
41630;DHT22;27322;49.488;8.480;2023-05-07T02:44:15;16.20;99.90
41630;DHT22;27322;49.488;8.480;2023-05-07T02:46:41;16.20;99.90
41630;DHT22;27322;49.488;8.480;2023-05-07T02:49:06;16.20;99.90
41630;DHT22;27322;49.488;8.480;2023-05-07T02:51:32;16.20;99.90
41630;DHT22;27322;49.488;8.480;2023-05-07T02:53:58;16.10;99.90
41630;DHT22;27322;49.488;8.480;2023-05-07T02:56:26;16.20;99.90
41630;DHT22;27322;49.488;8.480;2023-05-07T02:58:51;16.10;99.90
41630;DHT22;27322;49.488;8.480;2023-05-07T03:01:17;16.10;99.90
41630;DHT22;27322;49.488;8.480;2023-05-07T03:03:42;16.10;99.90
41630;DHT22;27322;49.488;8.480;2023-05-07T03:06:08;16.10;99.90
41630;DHT22;27322;49.488;8.480;2023-05-07T03:08:33;16.10;99.90
41630;DHT22;27322;49.488;8.480;2023-05-07T03:10:59;16.00;99.90
41630;DHT22;27322;49.488;8.480;2023-05-07T03:13:24;16.00;99.90
41630;DHT22;27322;49.488;8.480;2023-05-07T03:15:50;16.10;99.90
41630;DHT22;27322;49.488;8.480;2023-05-07T03:18:16;16.00;99.90
41630;DHT22;27322;49.488;8.480;2023-05-07T03:20:41;16.00;99.90
41630;DHT22;27322;49.488;8.480;2023-05-07T03:23:07;16.00;99.90
41630;DHT22;27322;49.488;8.480;2023-05-07T03:25:32;16.00;99.90
41630;DHT22;27322;49.488;8.480;2023-05-07T03:27:58;16.00;99.90
41630;DHT22;27322;49.488;8.480;2023-05-07T03:30:24;16.00;99.90
41630;DHT22;27322;49.488;8.480;2023-05-07T03:32:50;16.00;99.90
41630;DHT22;27322;49.488;8.480;2023-05-07T03:35:15;16.00;99.90
41630;DHT22;27322;49.488;8.480;2023-05-07T03:37:41;16.00;99.90
41630;DHT22;27322;49.488;8.480;2023-05-07T03:40:07;16.00;99.90
41630;DHT22;27322;49.488;8.480;2023-05-07T03:42:34;16.00;99.90
41630;DHT22;27322;49.488;8.480;2023-05-07T03:45:00;16.00;99.90
41630;DHT22;27322;49.488;8.480;2023-05-07T03:47:25;16.00;99.90
41630;DHT22;27322;49.488;8.480;2023-05-07T03:49:51;16.00;99.90
41630;DHT22;27322;49.488;8.480;2023-05-07T03:52:18;16.00;99.90
41630;DHT22;27322;49.488;8.480;2023-05-07T03:54:48;16.00;99.90
41630;DHT22;27322;49.488;8.480;2023-05-07T03:57:13;16.00;99.90
41630;DHT22;27322;49.488;8.480;2023-05-07T03:59:39;16.00;99.90
41630;DHT22;27322;49.488;8.480;2023-05-07T04:02:05;16.00;99.90
41630;DHT22;27322;49.488;8.480;2023-05-07T04:04:30;16.00;99.90
41630;DHT22;27322;49.488;8.480;2023-05-07T04:06:58;16.00;99.90
41630;DHT22;27322;49.488;8.480;2023-05-07T04:09:24;16.00;99.90
41630;DHT22;27322;49.488;8.480;2023-05-07T04:11:50;15.90;99.90
41630;DHT22;27322;49.488;8.480;2023-05-07T04:14:16;15.90;99.90
41630;DHT22;27322;49.488;8.480;2023-05-07T04:16:41;15.90;99.90
41630;DHT22;27322;49.488;8.480;2023-05-07T04:19:07;15.90;99.90
41630;DHT22;27322;49.488;8.480;2023-05-07T04:21:33;15.90;99.90
41630;DHT22;27322;49.488;8.480;2023-05-07T04:23:58;15.90;99.90
41630;DHT22;27322;49.488;8.480;2023-05-07T04:26:24;15.80;99.90
41630;DHT22;27322;49.488;8.480;2023-05-07T04:28:49;15.80;99.90
41630;DHT22;27322;49.488;8.480;2023-05-07T04:31:16;15.80;99.90
41630;DHT22;27322;49.488;8.480;2023-05-07T04:33:41;15.80;99.90
41630;DHT22;27322;49.488;8.480;2023-05-07T04:36:07;15.80;99.90
41630;DHT22;27322;49.488;8.480;2023-05-07T04:38:33;15.80;99.90
41630;DHT22;27322;49.488;8.480;2023-05-07T04:41:03;15.80;99.90
41630;DHT22;27322;49.488;8.480;2023-05-07T04:43:29;15.80;99.90
41630;DHT22;27322;49.488;8.480;2023-05-07T04:45:54;15.80;99.90
41630;DHT22;27322;49.488;8.480;2023-05-07T04:48:20;15.80;99.90
41630;DHT22;27322;49.488;8.480;2023-05-07T04:50:49;15.80;99.90
41630;DHT22;27322;49.488;8.480;2023-05-07T04:53:16;15.90;99.90
41630;DHT22;27322;49.488;8.480;2023-05-07T04:55:41;15.90;99.90
41630;DHT22;27322;49.488;8.480;2023-05-07T04:58:07;15.90;99.90
41630;DHT22;27322;49.488;8.480;2023-05-07T05:00:33;15.90;99.90
41630;DHT22;27322;49.488;8.480;2023-05-07T05:02:59;15.90;99.90
41630;DHT22;27322;49.488;8.480;2023-05-07T05:05:24;15.90;99.90
41630;DHT22;27322;49.488;8.480;2023-05-07T05:07:50;15.90;99.90
41630;DHT22;27322;49.488;8.480;2023-05-07T05:10:17;15.90;99.90
41630;DHT22;27322;49.488;8.480;2023-05-07T05:12:42;15.90;99.90
41630;DHT22;27322;49.488;8.480;2023-05-07T05:15:09;15.90;99.90
41630;DHT22;27322;49.488;8.480;2023-05-07T05:17:35;16.00;99.90
41630;DHT22;27322;49.488;8.480;2023-05-07T05:20:02;16.00;99.90
41630;DHT22;27322;49.488;8.480;2023-05-07T05:22:27;16.00;99.90
41630;DHT22;27322;49.488;8.480;2023-05-07T05:24:55;16.00;99.90
41630;DHT22;27322;49.488;8.480;2023-05-07T05:27:20;16.00;99.90
41630;DHT22;27322;49.488;8.480;2023-05-07T05:29:46;16.00;99.90
41630;DHT22;27322;49.488;8.480;2023-05-07T05:32:11;16.00;99.90
41630;DHT22;27322;49.488;8.480;2023-05-07T05:34:37;16.10;99.90
41630;DHT22;27322;49.488;8.480;2023-05-07T05:37:02;16.10;99.90
41630;DHT22;27322;49.488;8.480;2023-05-07T05:39:28;16.10;99.90
41630;DHT22;27322;49.488;8.480;2023-05-07T05:41:53;16.10;99.90
41630;DHT22;27322;49.488;8.480;2023-05-07T05:44:19;16.10;99.90
41630;DHT22;27322;49.488;8.480;2023-05-07T05:46:45;16.10;99.90
41630;DHT22;27322;49.488;8.480;2023-05-07T05:49:10;16.20;99.90
41630;DHT22;27322;49.488;8.480;2023-05-07T05:51:36;16.20;99.90
41630;DHT22;27322;49.488;8.480;2023-05-07T05:54:02;16.20;99.90
41630;DHT22;27322;49.488;8.480;2023-05-07T05:56:27;16.20;99.90
41630;DHT22;27322;49.488;8.480;2023-05-07T05:58:53;16.30;99.90
41630;DHT22;27322;49.488;8.480;2023-05-07T06:01:18;16.30;99.90
41630;DHT22;27322;49.488;8.480;2023-05-07T06:03:44;16.30;99.90
41630;DHT22;27322;49.488;8.480;2023-05-07T06:06:10;16.30;99.90
41630;DHT22;27322;49.488;8.480;2023-05-07T06:08:36;16.30;99.90
41630;DHT22;27322;49.488;8.480;2023-05-07T06:11:02;16.40;99.90
41630;DHT22;27322;49.488;8.480;2023-05-07T06:13:28;16.40;99.90
41630;DHT22;27322;49.488;8.480;2023-05-07T06:15:53;16.40;99.90
41630;DHT22;27322;49.488;8.480;2023-05-07T06:18:19;16.50;99.90
41630;DHT22;27322;49.488;8.480;2023-05-07T06:20:45;16.50;99.90
41630;DHT22;27322;49.488;8.480;2023-05-07T06:23:10;16.50;99.90
41630;DHT22;27322;49.488;8.480;2023-05-07T06:25:36;16.60;99.90
41630;DHT22;27322;49.488;8.480;2023-05-07T06:28:01;16.50;99.90
41630;DHT22;27322;49.488;8.480;2023-05-07T06:30:27;16.60;99.90
41630;DHT22;27322;49.488;8.480;2023-05-07T06:32:52;16.60;99.90
41630;DHT22;27322;49.488;8.480;2023-05-07T06:35:18;16.70;99.90
41630;DHT22;27322;49.488;8.480;2023-05-07T06:37:44;16.70;99.90
41630;DHT22;27322;49.488;8.480;2023-05-07T06:40:10;16.70;99.90
41630;DHT22;27322;49.488;8.480;2023-05-07T06:42:36;16.80;99.90
41630;DHT22;27322;49.488;8.480;2023-05-07T06:45:02;16.80;99.90
41630;DHT22;27322;49.488;8.480;2023-05-07T06:47:28;16.80;99.90
41630;DHT22;27322;49.488;8.480;2023-05-07T06:49:54;16.80;99.90
41630;DHT22;27322;49.488;8.480;2023-05-07T06:52:19;16.90;99.90
41630;DHT22;27322;49.488;8.480;2023-05-07T06:54:45;16.80;99.90
41630;DHT22;27322;49.488;8.480;2023-05-07T06:57:11;16.90;99.90
41630;DHT22;27322;49.488;8.480;2023-05-07T06:59:39;16.90;99.90
41630;DHT22;27322;49.488;8.480;2023-05-07T07:02:06;17.00;99.90
41630;DHT22;27322;49.488;8.480;2023-05-07T07:04:31;17.00;99.90
41630;DHT22;27322;49.488;8.480;2023-05-07T07:06:57;17.00;99.90
41630;DHT22;27322;49.488;8.480;2023-05-07T07:09:22;17.10;99.90
41630;DHT22;27322;49.488;8.480;2023-05-07T07:11:48;17.10;99.90
41630;DHT22;27322;49.488;8.480;2023-05-07T07:14:13;17.10;99.90
41630;DHT22;27322;49.488;8.480;2023-05-07T07:16:39;17.20;99.90
41630;DHT22;27322;49.488;8.480;2023-05-07T07:19:05;17.20;99.90
41630;DHT22;27322;49.488;8.480;2023-05-07T07:21:30;17.20;99.90
41630;DHT22;27322;49.488;8.480;2023-05-07T07:23:57;17.30;99.90
41630;DHT22;27322;49.488;8.480;2023-05-07T07:26:22;17.30;99.90
41630;DHT22;27322;49.488;8.480;2023-05-07T07:28:48;17.30;99.90
41630;DHT22;27322;49.488;8.480;2023-05-07T07:31:14;17.40;99.90
41630;DHT22;27322;49.488;8.480;2023-05-07T07:33:39;17.40;99.90
41630;DHT22;27322;49.488;8.480;2023-05-07T07:36:06;17.40;99.90
41630;DHT22;27322;49.488;8.480;2023-05-07T07:38:32;17.40;99.90
41630;DHT22;27322;49.488;8.480;2023-05-07T07:40:58;17.50;99.90
41630;DHT22;27322;49.488;8.480;2023-05-07T07:43:23;17.60;99.90
41630;DHT22;27322;49.488;8.480;2023-05-07T07:45:49;17.70;99.90
41630;DHT22;27322;49.488;8.480;2023-05-07T07:48:14;17.70;99.90
41630;DHT22;27322;49.488;8.480;2023-05-07T07:50:40;17.80;99.90
41630;DHT22;27322;49.488;8.480;2023-05-07T07:53:06;17.80;99.90
41630;DHT22;27322;49.488;8.480;2023-05-07T07:55:32;17.80;99.90
41630;DHT22;27322;49.488;8.480;2023-05-07T07:57:57;17.80;99.90
41630;DHT22;27322;49.488;8.480;2023-05-07T08:00:23;17.80;99.90
41630;DHT22;27322;49.488;8.480;2023-05-07T08:02:48;17.90;99.90
41630;DHT22;27322;49.488;8.480;2023-05-07T08:05:14;17.90;99.90
41630;DHT22;27322;49.488;8.480;2023-05-07T08:07:40;17.90;99.90
41630;DHT22;27322;49.488;8.480;2023-05-07T08:10:06;17.90;99.90
41630;DHT22;27322;49.488;8.480;2023-05-07T08:12:32;17.90;99.90
41630;DHT22;27322;49.488;8.480;2023-05-07T08:14:57;17.90;99.90
41630;DHT22;27322;49.488;8.480;2023-05-07T08:17:23;17.90;99.90
41630;DHT22;27322;49.488;8.480;2023-05-07T08:19:48;17.90;99.90
41630;DHT22;27322;49.488;8.480;2023-05-07T08:22:14;17.90;99.90
41630;DHT22;27322;49.488;8.480;2023-05-07T08:24:40;17.90;99.90
41630;DHT22;27322;49.488;8.480;2023-05-07T08:27:06;17.90;99.90
41630;DHT22;27322;49.488;8.480;2023-05-07T08:29:31;18.00;99.90
41630;DHT22;27322;49.488;8.480;2023-05-07T08:31:57;18.00;99.90
41630;DHT22;27322;49.488;8.480;2023-05-07T08:34:23;18.00;99.90
41630;DHT22;27322;49.488;8.480;2023-05-07T08:36:48;17.90;99.90
41630;DHT22;27322;49.488;8.480;2023-05-07T08:39:17;18.00;99.90
41630;DHT22;27322;49.488;8.480;2023-05-07T08:41:46;18.00;99.90
41630;DHT22;27322;49.488;8.480;2023-05-07T08:44:13;18.00;99.90
41630;DHT22;27322;49.488;8.480;2023-05-07T08:46:42;18.00;99.90
41630;DHT22;27322;49.488;8.480;2023-05-07T08:49:11;18.10;99.90
41630;DHT22;27322;49.488;8.480;2023-05-07T08:51:37;18.10;99.90
41630;DHT22;27322;49.488;8.480;2023-05-07T08:54:03;18.10;99.90
41630;DHT22;27322;49.488;8.480;2023-05-07T08:56:30;18.20;99.90
41630;DHT22;27322;49.488;8.480;2023-05-07T08:58:56;18.20;99.90
41630;DHT22;27322;49.488;8.480;2023-05-07T09:01:24;18.20;99.90
41630;DHT22;27322;49.488;8.480;2023-05-07T09:03:51;18.30;99.90
41630;DHT22;27322;49.488;8.480;2023-05-07T09:06:18;18.40;99.90
41630;DHT22;27322;49.488;8.480;2023-05-07T09:08:54;18.40;99.90
41630;DHT22;27322;49.488;8.480;2023-05-07T09:11:23;18.50;99.90
41630;DHT22;27322;49.488;8.480;2023-05-07T09:13:56;18.60;99.90
41630;DHT22;27322;49.488;8.480;2023-05-07T09:16:24;18.70;99.90
41630;DHT22;27322;49.488;8.480;2023-05-07T09:18:54;18.70;99.90
41630;DHT22;27322;49.488;8.480;2023-05-07T09:21:20;18.80;99.90
41630;DHT22;27322;49.488;8.480;2023-05-07T09:23:50;18.90;99.90
41630;DHT22;27322;49.488;8.480;2023-05-07T09:26:15;19.00;99.90
41630;DHT22;27322;49.488;8.480;2023-05-07T09:28:42;19.10;99.90
41630;DHT22;27322;49.488;8.480;2023-05-07T09:31:08;19.10;99.90
41630;DHT22;27322;49.488;8.480;2023-05-07T09:33:34;19.20;99.90
41630;DHT22;27322;49.488;8.480;2023-05-07T09:36:04;19.20;99.90
41630;DHT22;27322;49.488;8.480;2023-05-07T09:38:31;19.20;99.90
41630;DHT22;27322;49.488;8.480;2023-05-07T09:41:10;19.20;99.90
41630;DHT22;27322;49.488;8.480;2023-05-07T09:43:37;19.20;99.90
41630;DHT22;27322;49.488;8.480;2023-05-07T09:46:07;19.20;99.90
41630;DHT22;27322;49.488;8.480;2023-05-07T09:48:37;19.20;99.90
41630;DHT22;27322;49.488;8.480;2023-05-07T09:51:09;19.20;99.90
41630;DHT22;27322;49.488;8.480;2023-05-07T09:53:37;19.20;99.90
41630;DHT22;27322;49.488;8.480;2023-05-07T09:56:04;19.30;99.90
41630;DHT22;27322;49.488;8.480;2023-05-07T09:58:32;19.40;99.90
41630;DHT22;27322;49.488;8.480;2023-05-07T10:00:58;19.50;99.90
41630;DHT22;27322;49.488;8.480;2023-05-07T10:03:24;19.60;99.90
41630;DHT22;27322;49.488;8.480;2023-05-07T10:05:53;19.90;99.90
41630;DHT22;27322;49.488;8.480;2023-05-07T10:08:19;20.10;99.90
41630;DHT22;27322;49.488;8.480;2023-05-07T10:10:45;20.30;99.90
41630;DHT22;27322;49.488;8.480;2023-05-07T10:13:11;20.40;99.90
41630;DHT22;27322;49.488;8.480;2023-05-07T10:15:38;20.50;99.90
41630;DHT22;27322;49.488;8.480;2023-05-07T10:18:04;20.60;99.90
41630;DHT22;27322;49.488;8.480;2023-05-07T10:20:33;20.70;99.90
41630;DHT22;27322;49.488;8.480;2023-05-07T10:22:59;20.70;99.90
41630;DHT22;27322;49.488;8.480;2023-05-07T10:25:28;20.80;99.90
41630;DHT22;27322;49.488;8.480;2023-05-07T10:27:58;20.80;99.90
41630;DHT22;27322;49.488;8.480;2023-05-07T10:30:38;21.10;99.90
41630;DHT22;27322;49.488;8.480;2023-05-07T10:33:08;21.40;99.90
41630;DHT22;27322;49.488;8.480;2023-05-07T10:35:41;22.00;99.90
41630;DHT22;27322;49.488;8.480;2023-05-07T10:38:08;22.80;99.90
41630;DHT22;27322;49.488;8.480;2023-05-07T10:40:34;23.50;99.90
41630;DHT22;27322;49.488;8.480;2023-05-07T10:43:04;23.80;99.90
41630;DHT22;27322;49.488;8.480;2023-05-07T10:45:30;24.00;99.90
41630;DHT22;27322;49.488;8.480;2023-05-07T10:50:46;24.20;99.10
41630;DHT22;27322;49.488;8.480;2023-05-07T10:55:46;24.20;96.20
41630;DHT22;27322;49.488;8.480;2023-05-07T11:00:47;23.50;97.80
41630;DHT22;27322;49.488;8.480;2023-05-07T11:03:13;23.20;98.40
41630;DHT22;27322;49.488;8.480;2023-05-07T11:05:41;22.90;99.10
41630;DHT22;27322;49.488;8.480;2023-05-07T11:08:07;22.70;99.90
41630;DHT22;27322;49.488;8.480;2023-05-07T11:10:55;22.50;99.90
41630;DHT22;27322;49.488;8.480;2023-05-07T11:16:23;22.10;99.90
41630;DHT22;27322;49.488;8.480;2023-05-07T11:18:55;21.90;99.90
41630;DHT22;27322;49.488;8.480;2023-05-07T11:24:01;21.50;99.90
41630;DHT22;27322;49.488;8.480;2023-05-07T11:26:29;21.40;99.90
41630;DHT22;27322;49.488;8.480;2023-05-07T11:28:55;21.40;99.90
41630;DHT22;27322;49.488;8.480;2023-05-07T11:31:26;21.30;99.90
41630;DHT22;27322;49.488;8.480;2023-05-07T11:33:53;21.30;99.90
41630;DHT22;27322;49.488;8.480;2023-05-07T11:36:22;21.30;99.90
41630;DHT22;27322;49.488;8.480;2023-05-07T11:38:48;21.30;99.90
41630;DHT22;27322;49.488;8.480;2023-05-07T11:41:13;21.30;99.90
41630;DHT22;27322;49.488;8.480;2023-05-07T11:43:53;21.30;99.90
41630;DHT22;27322;49.488;8.480;2023-05-07T11:46:20;21.30;99.90
41630;DHT22;27322;49.488;8.480;2023-05-07T11:48:46;21.30;99.90
41630;DHT22;27322;49.488;8.480;2023-05-07T11:51:11;21.30;99.90
41630;DHT22;27322;49.488;8.480;2023-05-07T11:53:40;21.30;99.90
41630;DHT22;27322;49.488;8.480;2023-05-07T11:56:11;21.30;99.90
41630;DHT22;27322;49.488;8.480;2023-05-07T11:58:37;21.30;99.90
41630;DHT22;27322;49.488;8.480;2023-05-07T12:01:03;21.40;99.90
41630;DHT22;27322;49.488;8.480;2023-05-07T12:03:28;21.40;99.90
41630;DHT22;27322;49.488;8.480;2023-05-07T12:05:54;21.50;99.90
41630;DHT22;27322;49.488;8.480;2023-05-07T12:08:21;21.50;99.90
41630;DHT22;27322;49.488;8.480;2023-05-07T12:10:50;21.50;99.90
41630;DHT22;27322;49.488;8.480;2023-05-07T12:13:24;21.60;99.90
41630;DHT22;27322;49.488;8.480;2023-05-07T12:15:57;21.60;99.90
41630;DHT22;27322;49.488;8.480;2023-05-07T12:18:23;21.70;99.90
41630;DHT22;27322;49.488;8.480;2023-05-07T12:20:49;21.70;99.90
41630;DHT22;27322;49.488;8.480;2023-05-07T12:23:16;21.70;99.90
41630;DHT22;27322;49.488;8.480;2023-05-07T12:25:43;21.70;99.90
41630;DHT22;27322;49.488;8.480;2023-05-07T12:28:16;21.70;99.90
41630;DHT22;27322;49.488;8.480;2023-05-07T12:30:43;21.80;99.90
41630;DHT22;27322;49.488;8.480;2023-05-07T12:33:10;21.80;99.90
41630;DHT22;27322;49.488;8.480;2023-05-07T12:35:39;21.80;99.90
41630;DHT22;27322;49.488;8.480;2023-05-07T12:38:08;21.80;99.90
41630;DHT22;27322;49.488;8.480;2023-05-07T12:40:40;21.90;99.90
41630;DHT22;27322;49.488;8.480;2023-05-07T12:43:06;21.80;99.90
41630;DHT22;27322;49.488;8.480;2023-05-07T12:45:37;21.90;99.90
41630;DHT22;27322;49.488;8.480;2023-05-07T12:48:06;21.90;99.90
41630;DHT22;27322;49.488;8.480;2023-05-07T12:50:32;21.90;99.90
41630;DHT22;27322;49.488;8.480;2023-05-07T12:52:59;21.90;99.90
41630;DHT22;27322;49.488;8.480;2023-05-07T12:55:25;22.00;99.90
41630;DHT22;27322;49.488;8.480;2023-05-07T12:57:51;22.00;99.90
41630;DHT22;27322;49.488;8.480;2023-05-07T13:00:18;22.00;99.90
41630;DHT22;27322;49.488;8.480;2023-05-07T13:02:58;22.00;99.90
41630;DHT22;27322;49.488;8.480;2023-05-07T13:05:24;22.00;99.90
41630;DHT22;27322;49.488;8.480;2023-05-07T13:07:56;22.00;99.90
41630;DHT22;27322;49.488;8.480;2023-05-07T13:10:23;21.90;99.90
41630;DHT22;27322;49.488;8.480;2023-05-07T13:12:49;21.90;99.90
41630;DHT22;27322;49.488;8.480;2023-05-07T13:15:15;21.90;99.90
41630;DHT22;27322;49.488;8.480;2023-05-07T13:17:41;21.90;99.90
41630;DHT22;27322;49.488;8.480;2023-05-07T13:20:07;21.90;99.90
41630;DHT22;27322;49.488;8.480;2023-05-07T13:22:33;21.90;99.90
41630;DHT22;27322;49.488;8.480;2023-05-07T13:24:59;21.90;99.90
41630;DHT22;27322;49.488;8.480;2023-05-07T13:27:24;21.80;99.90
41630;DHT22;27322;49.488;8.480;2023-05-07T13:29:50;21.80;99.90
41630;DHT22;27322;49.488;8.480;2023-05-07T13:32:16;21.70;99.90
41630;DHT22;27322;49.488;8.480;2023-05-07T13:34:41;21.70;99.90
41630;DHT22;27322;49.488;8.480;2023-05-07T13:37:07;21.70;99.90
41630;DHT22;27322;49.488;8.480;2023-05-07T13:39:33;21.70;99.90
41630;DHT22;27322;49.488;8.480;2023-05-07T13:41:59;21.70;99.90
41630;DHT22;27322;49.488;8.480;2023-05-07T13:44:24;21.60;99.90
41630;DHT22;27322;49.488;8.480;2023-05-07T13:46:50;21.60;99.90
41630;DHT22;27322;49.488;8.480;2023-05-07T13:49:16;21.60;99.90
41630;DHT22;27322;49.488;8.480;2023-05-07T13:51:42;21.50;99.90
41630;DHT22;27322;49.488;8.480;2023-05-07T13:54:07;21.50;99.90
41630;DHT22;27322;49.488;8.480;2023-05-07T13:56:33;21.40;99.90
41630;DHT22;27322;49.488;8.480;2023-05-07T13:58:59;21.40;99.90
41630;DHT22;27322;49.488;8.480;2023-05-07T14:01:24;21.30;99.90
41630;DHT22;27322;49.488;8.480;2023-05-07T14:03:50;21.20;99.90
41630;DHT22;27322;49.488;8.480;2023-05-07T14:06:15;21.20;99.90
41630;DHT22;27322;49.488;8.480;2023-05-07T14:08:41;21.10;99.90
41630;DHT22;27322;49.488;8.480;2023-05-07T14:11:07;21.00;99.90
41630;DHT22;27322;49.488;8.480;2023-05-07T14:13:32;21.00;99.90
41630;DHT22;27322;49.488;8.480;2023-05-07T14:15:59;21.00;99.90
41630;DHT22;27322;49.488;8.480;2023-05-07T14:18:26;20.90;99.90
41630;DHT22;27322;49.488;8.480;2023-05-07T14:20:51;20.90;99.90
41630;DHT22;27322;49.488;8.480;2023-05-07T14:23:17;20.80;99.90
41630;DHT22;27322;49.488;8.480;2023-05-07T14:25:44;20.80;99.90
41630;DHT22;27322;49.488;8.480;2023-05-07T14:28:12;20.70;99.90
41630;DHT22;27322;49.488;8.480;2023-05-07T14:30:38;20.60;99.90
41630;DHT22;27322;49.488;8.480;2023-05-07T14:33:04;20.50;99.90
41630;DHT22;27322;49.488;8.480;2023-05-07T14:35:29;20.40;99.90
41630;DHT22;27322;49.488;8.480;2023-05-07T14:37:55;20.30;99.90
41630;DHT22;27322;49.488;8.480;2023-05-07T14:40:20;20.10;99.90
41630;DHT22;27322;49.488;8.480;2023-05-07T14:42:46;20.00;99.90
41630;DHT22;27322;49.488;8.480;2023-05-07T14:45:11;19.80;99.90
41630;DHT22;27322;49.488;8.480;2023-05-07T14:47:38;19.60;99.90
41630;DHT22;27322;49.488;8.480;2023-05-07T14:50:07;19.40;99.90
41630;DHT22;27322;49.488;8.480;2023-05-07T14:52:32;19.30;99.90
41630;DHT22;27322;49.488;8.480;2023-05-07T14:54:58;19.20;99.90
41630;DHT22;27322;49.488;8.480;2023-05-07T14:57:23;19.00;99.90
41630;DHT22;27322;49.488;8.480;2023-05-07T14:59:49;18.90;99.90
41630;DHT22;27322;49.488;8.480;2023-05-07T15:02:15;18.80;99.90
41630;DHT22;27322;49.488;8.480;2023-05-07T15:04:41;18.70;99.90
41630;DHT22;27322;49.488;8.480;2023-05-07T15:07:14;18.60;99.90
41630;DHT22;27322;49.488;8.480;2023-05-07T15:09:41;18.50;99.90
41630;DHT22;27322;49.488;8.480;2023-05-07T15:12:07;18.30;99.90
41630;DHT22;27322;49.488;8.480;2023-05-07T15:14:33;18.20;99.90
41630;DHT22;27322;49.488;8.480;2023-05-07T15:16:58;18.20;99.90
41630;DHT22;27322;49.488;8.480;2023-05-07T15:19:24;18.10;99.90
41630;DHT22;27322;49.488;8.480;2023-05-07T15:21:54;18.00;99.90
41630;DHT22;27322;49.488;8.480;2023-05-07T15:24:23;17.90;99.90
41630;DHT22;27322;49.488;8.480;2023-05-07T15:26:48;17.90;99.90
41630;DHT22;27322;49.488;8.480;2023-05-07T15:29:14;17.80;99.90
41630;DHT22;27322;49.488;8.480;2023-05-07T15:31:40;17.80;99.90
41630;DHT22;27322;49.488;8.480;2023-05-07T15:34:06;17.70;99.90
41630;DHT22;27322;49.488;8.480;2023-05-07T15:36:31;17.70;99.90
41630;DHT22;27322;49.488;8.480;2023-05-07T15:38:57;17.70;99.90